createdAt,value
2018-07-08T00:04:05.095Z,1019.6
2018-07-08T00:09:07.430Z,1019.7
2018-07-08T00:14:07.289Z,1019.7
2018-07-08T00:19:07.346Z,1019.7
2018-07-08T00:24:07.299Z,1019.7
2018-07-08T00:29:07.130Z,1019.8
2018-07-08T00:34:07.126Z,1019.7
2018-07-08T00:39:07.183Z,1019.7
2018-07-08T00:44:09.855Z,1019.7
2018-07-08T00:49:09.776Z,1019.7
2018-07-08T00:54:22.443Z,1019.7
2018-07-08T00:59:22.368Z,1019.6
2018-07-08T01:04:22.406Z,1019.7
2018-07-08T01:09:22.462Z,1019.7
2018-07-08T01:14:22.184Z,1019.7
2018-07-08T01:19:22.153Z,1019.6
2018-07-08T01:24:22.398Z,1019.7
2018-07-08T01:29:22.585Z,1019.7
2018-07-08T01:34:22.457Z,1019.7
2018-07-08T01:39:34.987Z,1019.8
2018-07-08T01:44:34.696Z,1019.6
2018-07-08T01:49:34.713Z,1019.8
2018-07-08T01:54:34.576Z,1019.7
2018-07-08T01:59:34.592Z,1019.6
2018-07-08T02:04:34.569Z,1019.5
2018-07-08T02:09:34.714Z,1019.5
2018-07-08T02:14:34.630Z,1019.5
2018-07-08T02:19:34.731Z,1019.5
2018-07-08T02:24:47.104Z,1019.5
2018-07-08T02:29:46.743Z,1019.5
2018-07-08T02:34:47.110Z,1019.4
2018-07-08T02:39:47.095Z,1019.4
2018-07-08T02:44:46.900Z,1019.5
2018-07-08T02:49:46.754Z,1019.5
2018-07-08T02:54:46.992Z,1019.5
2018-07-08T02:59:51.597Z,1019.4
2018-07-08T03:04:51.446Z,1019.4
2018-07-08T03:10:03.882Z,1019.4
2018-07-08T03:15:03.633Z,1019.3
2018-07-08T03:20:03.737Z,1019.4
2018-07-08T03:25:03.623Z,1019.4
2018-07-08T03:30:03.809Z,1019.5
2018-07-08T03:35:03.691Z,1019.3
2018-07-08T03:40:03.629Z,1019.4
2018-07-08T03:45:04.186Z,1019.5
2018-07-08T03:50:03.969Z,1019.5
2018-07-08T03:55:16.793Z,1019.3
2018-07-08T04:00:16.709Z,1019.3
2018-07-08T04:05:16.752Z,1019.3
2018-07-08T04:10:16.675Z,1019.3
2018-07-08T04:15:16.997Z,1019.3
2018-07-08T04:20:16.630Z,1019.3
2018-07-08T04:25:16.538Z,1019.3
2018-07-08T04:30:17.375Z,1019.3
2018-07-08T04:35:16.992Z,1019.3
2018-07-08T04:40:29.687Z,1019.2
2018-07-08T04:45:29.676Z,1019.3
2018-07-08T04:50:29.694Z,1019.3
2018-07-08T04:55:29.563Z,1019.2
2018-07-08T05:00:29.465Z,1019.2
2018-07-08T05:05:30.692Z,1019.1
2018-07-08T05:10:30.593Z,1019.2
2018-07-08T05:15:30.519Z,1019.3
2018-07-08T05:20:30.988Z,1019.3
2018-07-08T05:25:30.451Z,1019.3
2018-07-08T05:30:30.479Z,1019.3
2018-07-08T05:35:30.444Z,1019.4
2018-07-08T05:40:31.001Z,1019.4
2018-07-08T05:45:30.735Z,1019.3
2018-07-08T05:50:43.611Z,1019.3
2018-07-08T05:55:43.347Z,1019.3
2018-07-08T06:00:43.461Z,1019.2
2018-07-08T06:05:43.287Z,1019.3
2018-07-08T06:10:43.618Z,1019.3
2018-07-08T06:15:43.539Z,1019.2
2018-07-08T06:20:43.415Z,1019.1
2018-07-08T06:25:44.616Z,1019.1
2018-07-08T06:30:44.321Z,1018.9
2018-07-08T06:35:57.008Z,1019
2018-07-08T06:40:56.938Z,1018.8
2018-07-08T06:45:56.896Z,1018.7
2018-07-08T06:50:56.887Z,1018.7
2018-07-08T06:55:56.967Z,1018.8
2018-07-08T07:00:56.849Z,1018.6
2018-07-08T07:05:56.727Z,1018.6
2018-07-08T07:10:57.033Z,1018.6
2018-07-08T07:15:56.898Z,1018.6
2018-07-08T07:20:56.782Z,1018.7
2018-07-08T07:25:56.944Z,1018.7
2018-07-08T07:30:56.807Z,1018.5
2018-07-08T07:35:58.624Z,1018.5
2018-07-08T07:40:58.356Z,1018.6
2018-07-08T07:46:10.561Z,1018.4
2018-07-08T07:51:10.469Z,1018.4
2018-07-08T07:56:10.318Z,1018.6
2018-07-08T08:01:10.298Z,1018.7
2018-07-08T08:06:10.297Z,1018.4
2018-07-08T08:11:10.298Z,1018.3
2018-07-08T08:16:10.367Z,1018.3
2018-07-08T08:21:10.469Z,1018.5
2018-07-08T08:26:10.264Z,1018.4
2018-07-08T08:31:12.152Z,1018.4
2018-07-08T08:36:11.870Z,1018.3
2018-07-08T08:41:11.948Z,1018.2
2018-07-08T08:46:12.144Z,1018.2
2018-07-08T08:51:11.909Z,1018.2
2018-07-08T08:56:11.898Z,1018.1
2018-07-08T09:01:11.996Z,1018.2
2018-07-08T09:06:11.896Z,1018.2
2018-07-08T09:11:11.912Z,1018.2
2018-07-08T09:16:12.083Z,1018.1
2018-07-08T09:21:11.973Z,1018.1
2018-07-08T09:26:11.940Z,1018.1
2018-07-08T09:31:11.931Z,1018.1
2018-07-08T09:36:11.985Z,1017.9
2018-07-08T09:41:23.865Z,1018
2018-07-08T09:46:23.249Z,1018.1
2018-07-08T09:51:24.111Z,1017.9
2018-07-08T09:56:23.225Z,1017.9
2018-07-08T10:01:23.267Z,1017.9
2018-07-08T10:06:23.257Z,1017.8
2018-07-08T10:11:23.549Z,1017.9
2018-07-08T10:16:24.315Z,1017.8
2018-07-08T10:21:24.223Z,1017.8
2018-07-08T10:26:35.889Z,1017.6
2018-07-08T10:31:35.624Z,1017.7
2018-07-08T10:36:35.934Z,1017.6
2018-07-08T10:41:35.662Z,1017.6
2018-07-08T10:46:35.752Z,1017.6
2018-07-08T10:51:35.637Z,1017.5
2018-07-08T10:56:35.633Z,1017.5
2018-07-08T11:01:35.752Z,1017.4
2018-07-08T11:06:35.660Z,1017.2
2018-07-08T11:11:35.677Z,1017.4
2018-07-08T11:16:35.893Z,1017.2
2018-07-08T11:21:35.621Z,1017.3
2018-07-08T11:26:37.006Z,1017.3
2018-07-08T11:31:36.939Z,1017.2
2018-07-08T11:36:49.106Z,1017.2
2018-07-08T11:41:48.326Z,1017.3
2018-07-08T11:46:48.249Z,1017
2018-07-08T11:51:48.269Z,1017.1
2018-07-08T11:56:48.243Z,1017.1
2018-07-08T12:01:48.425Z,1017.1
2018-07-08T12:06:48.416Z,1017
2018-07-08T12:11:50.631Z,1016.9
2018-07-08T12:16:50.360Z,1017
2018-07-08T12:22:03.193Z,1016.6
2018-07-08T12:27:02.943Z,1016.7
2018-07-08T12:32:02.928Z,1016.8
2018-07-08T12:37:02.943Z,1016.9
2018-07-08T12:42:02.980Z,1016.9
2018-07-08T12:47:03.107Z,1016.7
2018-07-08T12:52:03.058Z,1016.6
2018-07-08T12:57:03.292Z,1016.5
2018-07-08T13:02:03.242Z,1016.4
2018-07-08T13:07:18.568Z,1016.3
2018-07-08T13:12:18.432Z,1016.3
2018-07-08T13:17:18.485Z,1016.3
2018-07-08T13:22:18.305Z,1016.2
2018-07-08T13:27:18.452Z,1016.1
2018-07-08T13:32:18.903Z,1016.2
2018-07-08T13:37:19.018Z,1016.1
2018-07-08T13:42:23.415Z,1016.1
2018-07-08T13:47:23.563Z,1016.1
2018-07-08T13:52:36.164Z,1016
2018-07-08T13:57:36.100Z,1015.9
2018-07-08T14:02:36.111Z,1015.8
2018-07-08T14:07:35.880Z,1015.9
2018-07-08T14:12:35.879Z,1015.9
2018-07-08T14:17:36.066Z,1015.8
2018-07-08T14:22:35.922Z,1015.9
2018-07-08T14:27:37.665Z,1015.9
2018-07-08T14:32:37.546Z,1015.9
2018-07-08T14:37:50.174Z,1016.2
2018-07-08T14:42:49.831Z,1016.2
2018-07-08T14:47:49.904Z,1016.3
2018-07-08T14:52:49.933Z,1016.4
2018-07-08T14:57:49.891Z,1016.4
2018-07-08T15:02:49.781Z,1016.3
2018-07-08T15:07:49.927Z,1016.4
2018-07-08T15:12:50.963Z,1016.4
2018-07-08T15:17:50.711Z,1016.5
2018-07-08T15:23:03.610Z,1016.5
2018-07-08T15:28:03.555Z,1016.5
2018-07-08T15:33:03.308Z,1016.6
2018-07-08T15:38:03.452Z,1016.5
2018-07-08T15:43:03.489Z,1016.4
2018-07-08T15:48:03.300Z,1016.5
2018-07-08T15:53:03.447Z,1016.5
2018-07-08T15:58:03.343Z,1016.5
2018-07-08T16:03:03.609Z,1016.6
2018-07-08T16:08:15.310Z,1016.6
2018-07-08T16:13:15.059Z,1016.7
2018-07-08T16:18:15.405Z,1016.7
2018-07-08T16:23:15.085Z,1016.8
2018-07-08T16:28:15.245Z,1016.8
2018-07-08T16:33:15.136Z,1016.8
2018-07-08T16:38:15.133Z,1017
2018-07-08T16:43:15.225Z,1017
2018-07-08T16:48:18.224Z,1017
2018-07-08T16:53:30.577Z,1017
2018-07-08T16:58:30.249Z,1017
2018-07-08T17:03:30.056Z,1017
2018-07-08T17:08:30.308Z,1016.9
2018-07-08T17:13:30.117Z,1017
2018-07-08T17:18:31.273Z,1017
2018-07-08T17:23:30.781Z,1017
2018-07-08T17:28:30.236Z,1017.1
2018-07-08T17:33:30.624Z,1017.2
2018-07-08T17:38:45.486Z,1017.2
2018-07-08T17:43:45.400Z,1017.2
2018-07-08T17:48:45.191Z,1017.2
2018-07-08T17:53:45.401Z,1017.2
2018-07-08T17:58:45.314Z,1017.3
2018-07-08T18:03:45.364Z,1017.3
2018-07-08T18:08:45.349Z,1017.5
2018-07-08T18:13:47.464Z,1017.6
2018-07-08T18:18:47.174Z,1017.5
2018-07-08T18:24:02.051Z,1017.6
2018-07-08T18:29:01.881Z,1017.7
2018-07-08T18:34:02.042Z,1017.7
2018-07-08T18:39:02.037Z,1017.8
2018-07-08T18:44:02.001Z,1017.8
2018-07-08T18:49:02.033Z,1017.8
2018-07-08T18:54:01.822Z,1017.9
2018-07-08T18:59:03.106Z,1017.9
2018-07-08T19:04:02.873Z,1018.1
2018-07-08T19:09:17.537Z,1018.1
2018-07-08T19:14:17.135Z,1018.1
2018-07-08T19:19:17.298Z,1018.2
2018-07-08T19:24:17.159Z,1018.2
2018-07-08T19:29:17.331Z,1018.3
2018-07-08T19:34:17.373Z,1018.3
2018-07-08T19:39:17.301Z,1018.4
2018-07-08T19:44:17.998Z,1018.6
2018-07-08T19:49:17.887Z,1018.6
2018-07-08T19:54:30.466Z,1018.6
2018-07-08T19:59:30.245Z,1018.6
2018-07-08T20:04:30.115Z,1018.7
2018-07-08T20:09:30.104Z,1018.7
2018-07-08T20:14:32.761Z,1018.7
2018-07-08T20:19:30.099Z,1018.6
2018-07-08T20:24:30.346Z,1018.7
2018-07-08T20:29:30.345Z,1018.8
2018-07-08T20:34:30.221Z,1018.8
2018-07-08T20:39:30.054Z,1018.8
2018-07-08T20:44:30.539Z,1018.9
2018-07-08T20:49:30.289Z,1018.9
2018-07-08T20:54:30.261Z,1019
2018-07-08T20:59:31.408Z,1019
2018-07-08T21:04:30.340Z,1019.1
2018-07-08T21:09:31.414Z,1019
2018-07-08T21:14:30.359Z,1019
2018-07-08T21:19:30.386Z,1019
2018-07-08T21:24:30.344Z,1019
2018-07-08T21:29:42.149Z,1019
2018-07-08T21:34:41.992Z,1019
2018-07-08T21:39:42.076Z,1019.1
2018-07-08T21:44:42.160Z,1019
2018-07-08T21:49:42.030Z,1019.1
2018-07-08T21:54:42.098Z,1019.1
2018-07-08T21:59:42.077Z,1019.1
2018-07-08T22:04:42.388Z,1019.1
2018-07-08T22:09:42.453Z,1019.2
2018-07-08T22:14:55.634Z,1019.2
2018-07-08T22:19:55.468Z,1019.1
2018-07-08T22:24:55.329Z,1019.1
2018-07-08T22:29:55.376Z,1019.1
2018-07-08T22:34:55.332Z,1019.2
2018-07-08T22:39:55.391Z,1019
2018-07-08T22:44:55.346Z,1019.2
2018-07-08T22:49:58.539Z,1019.1
2018-07-08T22:54:58.371Z,1019.1
2018-07-08T23:00:11.024Z,1019.2
2018-07-08T23:05:10.751Z,1019.1
2018-07-08T23:10:10.908Z,1019.2
2018-07-08T23:15:10.728Z,1019.1
2018-07-08T23:20:11.180Z,1019.2
2018-07-08T23:25:10.991Z,1019.1
2018-07-08T23:30:10.761Z,1019
2018-07-08T23:35:12.761Z,1019.2
2018-07-08T23:40:12.554Z,1019.2
2018-07-08T23:45:27.511Z,1019.3
2018-07-08T23:50:27.233Z,1019.3
2018-07-08T23:55:27.249Z,1019.2
